Time;durP1;ratioP1;P1;durP2;ratioP2;P2;SDS_P1;SDS_P2;PMS_P1;PMS_P2;Temp;Humidity;BMP_temperature;BMP_pressure;BME280_temperature;BME280_humidity;BME280_pressure;Samples;Min_cycle;Max_cycle;Signal;HPM_P1;HPM_P2
2022/12/23 00:01:03;;;;;;;52.45;24.05;;;;;;;;;;4997199;28;20769;-71
2022/12/23 00:03:30;;;;;;;49.95;23.80;;;;;;;;;;5005624;28;20216;-71
2022/12/23 00:05:56;;;;;;;49.67;23.92;;;;;;;;;;5007937;28;20214;-71
2022/12/23 00:08:22;;;;;;;45.28;23.80;;;;;;;;;;5004553;28;20527;-71
2022/12/23 00:10:49;;;;;;;49.95;23.92;;;;;;;;;;5015660;28;20198;-71
2022/12/23 00:16:19;;;;;;;45.75;23.45;;;;;;;;;;5014483;28;20711;-71
2022/12/23 00:18:44;;;;;;;47.80;22.63;;;;;;;;;;4999768;28;20225;-71
2022/12/23 00:21:13;;;;;;;45.65;22.65;;;;;;;;;;5013372;28;20734;-71
2022/12/23 00:23:41;;;;;;;43.70;22.27;;;;;;;;;;5023093;28;20607;-71
2022/12/23 00:26:12;;;;;;;47.63;22.75;;;;;;;;;;5025043;28;20638;-71
2022/12/23 00:28:37;;;;;;;44.28;21.77;;;;;;;;;;5019610;28;20183;-71
2022/12/23 00:31:08;;;;;;;44.65;21.75;;;;;;;;;;5020485;28;20209;-71
2022/12/23 00:33:36;;;;;;;43.78;21.10;;;;;;;;;;5009536;28;20202;-71
2022/12/23 00:36:09;;;;;;;45.50;21.25;;;;;;;;;;5028161;28;20209;-71
2022/12/23 00:44:03;;;;;;;35.88;18.13;;;;;;;;;;5006332;28;20214;-71
2022/12/23 00:46:29;;;;;;;33.72;17.48;;;;;;;;;;5009755;28;20600;-71
2022/12/23 00:51:38;;;;;;;32.72;17.35;;;;;;;;;;5023252;28;20228;-71
2022/12/23 00:54:04;;;;;;;29.30;15.70;;;;;;;;;;4996518;28;20194;-71
2022/12/23 00:56:30;;;;;;;28.27;14.55;;;;;;;;;;5022881;28;20182;-70
2022/12/23 00:58:56;;;;;;;33.53;16.13;;;;;;;;;;4998863;28;20182;-71
2022/12/23 01:06:50;;;;;;;27.35;14.57;;;;;;;;;;5007688;28;20183;-70
2022/12/23 01:09:15;;;;;;;26.58;14.15;;;;;;;;;;5009672;28;20252;-70
2022/12/23 01:11:41;;;;;;;25.50;13.82;;;;;;;;;;5016455;28;20190;-70
2022/12/23 01:14:08;;;;;;;26.38;13.88;;;;;;;;;;5003833;28;20257;-70
2022/12/23 01:16:37;;;;;;;26.95;15.15;;;;;;;;;;5006430;28;20193;-70
2022/12/23 01:19:02;;;;;;;27.88;14.80;;;;;;;;;;5013060;28;20790;-70
2022/12/23 01:21:27;;;;;;;28.30;14.45;;;;;;;;;;5008161;28;20238;-70
2022/12/23 01:23:53;;;;;;;27.52;14.27;;;;;;;;;;4999129;28;20197;-70
2022/12/23 01:26:18;;;;;;;29.17;14.95;;;;;;;;;;5008051;28;20272;-70
2022/12/23 01:28:43;;;;;;;29.10;14.57;;;;;;;;;;5007784;28;20186;-70
2022/12/23 01:31:09;;;;;;;29.60;14.85;;;;;;;;;;5009585;28;20332;-70
2022/12/23 01:33:35;;;;;;;29.33;14.13;;;;;;;;;;4996899;28;20415;-71
2022/12/23 01:36:03;;;;;;;28.95;14.32;;;;;;;;;;5008116;28;20333;-72
2022/12/23 01:38:29;;;;;;;29.63;14.57;;;;;;;;;;5003719;28;20253;-71
2022/12/23 01:40:54;;;;;;;32.08;15.20;;;;;;;;;;5003199;28;20206;-71
2022/12/23 01:43:21;;;;;;;29.42;15.05;;;;;;;;;;4997939;28;20200;-71
2022/12/23 01:45:46;;;;;;;30.15;15.25;;;;;;;;;;5002227;28;20218;-71
2022/12/23 01:48:25;;;;;;;32.78;15.95;;;;;;;;;;5007815;28;20664;-71
2022/12/23 01:50:57;;;;;;;30.85;15.02;;;;;;;;;;5016324;28;20206;-71
2022/12/23 01:53:35;;;;;;;32.38;14.98;;;;;;;;;;5003769;28;20201;-71
2022/12/23 01:56:04;;;;;;;29.30;14.00;;;;;;;;;;5009673;28;20326;-71
2022/12/23 01:58:33;;;;;;;30.48;13.95;;;;;;;;;;5011330;28;20638;-71
2022/12/23 02:03:46;;;;;;;32.70;15.00;;;;;;;;;;5005921;28;20200;-71
2022/12/23 02:09:17;;;;;;;33.55;16.27;;;;;;;;;;5003494;28;20200;-71
2022/12/23 02:11:51;;;;;;;36.80;16.73;;;;;;;;;;4991188;28;20222;-71
2022/12/23 02:18:40;;;;;;;36.53;17.08;;;;;;;;;;4957485;28;20210;-71
2022/12/23 02:21:17;;;;;;;40.33;17.98;;;;;;;;;;5006499;28;20281;-71
2022/12/23 02:24:09;;;;;;;38.78;19.63;;;;;;;;;;5001396;28;20666;-71
2022/12/23 02:26:53;;;;;;;43.70;22.52;;;;;;;;;;5011202;28;20259;-71
2022/12/23 02:30:07;;;;;;;46.00;22.73;;;;;;;;;;5007887;28;20245;-71
2022/12/23 02:32:47;;;;;;;39.95;21.25;;;;;;;;;;5013574;28;20274;-71
2022/12/23 02:35:36;;;;;;;47.83;22.60;;;;;;;;;;5006643;28;20199;-71
2022/12/23 02:38:10;;;;;;;43.03;22.50;;;;;;;;;;5014268;28;20278;-71
2022/12/23 02:41:14;;;;;;;46.65;22.70;;;;;;;;;;5001962;28;20191;-71
2022/12/23 02:43:39;;;;;;;47.60;23.63;;;;;;;;;;5001426;28;20186;-71
2022/12/23 02:46:24;;;;;;;47.17;22.73;;;;;;;;;;5006073;28;20558;-71
2022/12/23 02:49:12;;;;;;;43.65;22.05;;;;;;;;;;5000784;28;20199;-71
2022/12/23 02:51:44;;;;;;;42.13;21.90;;;;;;;;;;5004201;28;20209;-71
2022/12/23 02:54:13;;;;;;;46.47;23.10;;;;;;;;;;5026752;28;20195;-70
2022/12/23 02:56:43;;;;;;;42.42;21.33;;;;;;;;;;5006106;28;20214;-70
2022/12/23 02:59:14;;;;;;;40.75;22.38;;;;;;;;;;5007540;28;20202;-71
2022/12/23 03:01:41;;;;;;;43.72;23.83;;;;;;;;;;5003235;28;20187;-71
2022/12/23 03:04:07;;;;;;;44.35;24.10;;;;;;;;;;5012456;28;20248;-71
2022/12/23 03:06:40;;;;;;;41.58;24.25;;;;;;;;;;5009233;28;20195;-71
2022/12/23 03:09:06;;;;;;;47.42;24.17;;;;;;;;;;5006436;28;20542;-70
2022/12/23 03:11:59;;;;;;;44.92;24.73;;;;;;;;;;5007727;28;20197;-70
2022/12/23 03:14:53;;;;;;;48.33;25.38;;;;;;;;;;5017231;28;20551;-70
2022/12/23 03:17:42;;;;;;;45.03;24.50;;;;;;;;;;4995560;28;20194;-70
2022/12/23 03:20:19;;;;;;;44.95;26.10;;;;;;;;;;5007428;28;20851;-70
2022/12/23 03:23:02;;;;;;;43.45;24.95;;;;;;;;;;5000249;28;20230;-70
2022/12/23 03:25:46;;;;;;;43.47;24.45;;;;;;;;;;5011405;28;20226;-69
2022/12/23 03:28:22;;;;;;;41.97;24.42;;;;;;;;;;5013778;28;20205;-69
2022/12/23 03:30:53;;;;;;;39.85;23.88;;;;;;;;;;5011201;28;20699;-69
2022/12/23 03:33:25;;;;;;;38.13;22.67;;;;;;;;;;5005562;28;20229;-69
2022/12/23 03:35:58;;;;;;;42.60;23.50;;;;;;;;;;5013155;28;20297;-70
2022/12/23 03:38:24;;;;;;;38.50;23.48;;;;;;;;;;5011340;28;20679;-69
2022/12/23 03:40:56;;;;;;;45.55;24.88;;;;;;;;;;5010441;28;20192;-69
2022/12/23 03:43:29;;;;;;;35.88;24.10;;;;;;;;;;5005164;28;20190;-69
2022/12/23 03:46:09;;;;;;;39.38;23.52;;;;;;;;;;5007538;28;20372;-69
2022/12/23 03:48:46;;;;;;;38.05;23.65;;;;;;;;;;5003159;28;20195;-69
2022/12/23 03:51:18;;;;;;;38.85;23.13;;;;;;;;;;5009048;28;20658;-69
2022/12/23 03:53:59;;;;;;;39.42;23.88;;;;;;;;;;5006011;28;20244;-69
2022/12/23 03:56:33;;;;;;;40.53;23.10;;;;;;;;;;5008298;28;20189;-69
2022/12/23 03:59:03;;;;;;;37.97;22.45;;;;;;;;;;5005720;28;20691;-69
2022/12/23 04:01:55;;;;;;;44.47;23.08;;;;;;;;;;5008577;28;20573;-69
2022/12/23 04:04:28;;;;;;;39.58;23.10;;;;;;;;;;5005109;28;20209;-69
2022/12/23 04:06:59;;;;;;;41.10;23.48;;;;;;;;;;4999288;28;20570;-69
2022/12/23 04:09:27;;;;;;;36.70;23.15;;;;;;;;;;5007127;28;20202;-69
2022/12/23 04:11:53;;;;;;;38.97;23.98;;;;;;;;;;5007381;28;20261;-69
2022/12/23 04:14:20;;;;;;;43.50;24.85;;;;;;;;;;5003997;28;20218;-69
2022/12/23 04:16:47;;;;;;;40.35;24.13;;;;;;;;;;5004330;28;20218;-69
2022/12/23 04:19:12;;;;;;;40.70;24.02;;;;;;;;;;4995720;28;20191;-69
2022/12/23 04:21:38;;;;;;;43.75;24.05;;;;;;;;;;5006683;28;20233;-68
2022/12/23 04:24:03;;;;;;;41.63;24.90;;;;;;;;;;5005022;28;20666;-68
2022/12/23 04:26:28;;;;;;;44.20;25.30;;;;;;;;;;4998884;28;20199;-68
2022/12/23 04:28:54;;;;;;;46.65;25.58;;;;;;;;;;5005702;28;20187;-68
2022/12/23 04:31:19;;;;;;;49.50;26.40;;;;;;;;;;5007413;28;20416;-68
2022/12/23 04:33:45;;;;;;;58.28;27.55;;;;;;;;;;5002848;28;20230;-68
2022/12/23 04:36:10;;;;;;;54.90;27.17;;;;;;;;;;5000387;28;20314;-68
2022/12/23 04:38:35;;;;;;;55.88;28.23;;;;;;;;;;5008323;28;20190;-68
2022/12/23 04:41:01;;;;;;;52.97;27.63;;;;;;;;;;5005844;28;20195;-68
2022/12/23 04:43:26;;;;;;;56.13;28.77;;;;;;;;;;4998763;28;20195;-68
2022/12/23 04:45:52;;;;;;;60.30;29.38;;;;;;;;;;5002618;28;20215;-69
2022/12/23 04:48:17;;;;;;;56.97;27.98;;;;;;;;;;5002243;28;20190;-68
2022/12/23 04:50:43;;;;;;;64.75;29.83;;;;;;;;;;5005683;28;20269;-68
2022/12/23 04:53:08;;;;;;;65.50;31.00;;;;;;;;;;5007673;28;20221;-68
2022/12/23 04:55:33;;;;;;;65.80;29.60;;;;;;;;;;5001973;28;20190;-68
2022/12/23 04:57:59;;;;;;;64.05;30.90;;;;;;;;;;5017150;28;20186;-69
2022/12/23 05:00:24;;;;;;;68.82;30.85;;;;;;;;;;5006210;28;20742;-68
2022/12/23 05:02:49;;;;;;;66.30;31.02;;;;;;;;;;5006720;28;20198;-68
2022/12/23 05:05:15;;;;;;;73.63;29.80;;;;;;;;;;4990767;28;20223;-68
2022/12/23 05:07:40;;;;;;;66.85;26.25;;;;;;;;;;5010017;28;20182;-68
2022/12/23 05:10:06;;;;;;;70.45;27.38;;;;;;;;;;5010366;28;20205;-68
2022/12/23 05:12:32;;;;;;;74.82;26.90;;;;;;;;;;5019292;28;20189;-68
2022/12/23 05:14:57;;;;;;;72.55;27.15;;;;;;;;;;5017767;28;20186;-68
2022/12/23 05:17:22;;;;;;;70.50;27.50;;;;;;;;;;5009968;28;20545;-68
2022/12/23 05:19:48;;;;;;;73.03;27.00;;;;;;;;;;5002334;28;20207;-70
2022/12/23 05:22:13;;;;;;;68.55;25.83;;;;;;;;;;5003104;28;20242;-70
2022/12/23 05:24:38;;;;;;;84.60;28.40;;;;;;;;;;5003696;28;20207;-69
2022/12/23 05:27:04;;;;;;;81.15;28.95;;;;;;;;;;5008045;28;20190;-69
2022/12/23 05:29:29;;;;;;;84.38;28.38;;;;;;;;;;5003888;28;20644;-69
2022/12/23 05:31:55;;;;;;;94.40;31.38;;;;;;;;;;5004758;28;20178;-68
2022/12/23 05:34:21;;;;;;;101.00;30.10;;;;;;;;;;5002186;28;20257;-69
2022/12/23 05:36:46;;;;;;;102.38;31.67;;;;;;;;;;5012178;28;20656;-69
2022/12/23 05:39:12;;;;;;;114.75;31.85;;;;;;;;;;5011617;28;20682;-68
2022/12/23 05:41:37;;;;;;;103.15;30.70;;;;;;;;;;5021252;28;20190;-69
2022/12/23 05:44:03;;;;;;;137.52;33.58;;;;;;;;;;5001594;28;20305;-68
2022/12/23 05:46:28;;;;;;;95.55;29.90;;;;;;;;;;5011189;28;20752;-67
2022/12/23 05:48:53;;;;;;;99.75;29.67;;;;;;;;;;5008807;28;20419;-68
2022/12/23 05:51:19;;;;;;;99.57;29.52;;;;;;;;;;5011411;28;20674;-68
2022/12/23 05:53:44;;;;;;;92.60;28.77;;;;;;;;;;5016902;28;20198;-68
2022/12/23 05:56:09;;;;;;;110.90;30.00;;;;;;;;;;5007330;28;20741;-68
2022/12/23 05:58:35;;;;;;;96.38;28.02;;;;;;;;;;5018170;28;20244;-68
2022/12/23 06:01:02;;;;;;;77.25;25.08;;;;;;;;;;5003850;28;20230;-68
2022/12/23 06:03:27;;;;;;;81.78;25.33;;;;;;;;;;5016154;28;20226;-68
2022/12/23 06:05:53;;;;;;;86.25;24.98;;;;;;;;;;5007108;28;20325;-68
2022/12/23 06:08:19;;;;;;;72.30;25.00;;;;;;;;;;5017093;28;20194;-68
2022/12/23 06:10:44;;;;;;;93.00;26.00;;;;;;;;;;5005161;28;20245;-68
2022/12/23 06:13:10;;;;;;;86.15;26.23;;;;;;;;;;5001456;28;20205;-68
2022/12/23 06:15:35;;;;;;;75.50;24.60;;;;;;;;;;5009015;28;20182;-68
2022/12/23 06:18:01;;;;;;;77.03;23.63;;;;;;;;;;5022339;28;20232;-68
2022/12/23 06:20:26;;;;;;;82.20;25.13;;;;;;;;;;5018618;28;20197;-68
2022/12/23 06:22:52;;;;;;;74.78;23.45;;;;;;;;;;5013359;28;20223;-68
2022/12/23 06:25:17;;;;;;;71.57;21.23;;;;;;;;;;5007111;28;20713;-68
2022/12/23 06:27:43;;;;;;;78.50;22.27;;;;;;;;;;5013908;28;20182;-69
2022/12/23 06:30:09;;;;;;;70.20;22.08;;;;;;;;;;5012728;28;20195;-69
2022/12/23 06:32:34;;;;;;;68.05;22.83;;;;;;;;;;5009413;28;20233;-69
2022/12/23 06:35:00;;;;;;;71.13;21.63;;;;;;;;;;5010226;28;20497;-70
2022/12/23 06:37:25;;;;;;;78.38;21.92;;;;;;;;;;5007397;28;20187;-69
2022/12/23 06:39:50;;;;;;;75.20;22.33;;;;;;;;;;5002817;28;20195;-69
2022/12/23 06:42:16;;;;;;;62.10;20.60;;;;;;;;;;5002664;28;20195;-69
2022/12/23 06:44:41;;;;;;;63.10;21.80;;;;;;;;;;5002083;28;20298;-69
2022/12/23 06:47:06;;;;;;;78.63;22.90;;;;;;;;;;4997618;28;20199;-69
2022/12/23 06:49:32;;;;;;;66.93;21.40;;;;;;;;;;5012558;28;20544;-69
2022/12/23 06:51:57;;;;;;;72.38;21.95;;;;;;;;;;5020999;28;20195;-69
2022/12/23 06:54:22;;;;;;;67.20;22.33;;;;;;;;;;5020015;28;20190;-69
2022/12/23 06:56:48;;;;;;;63.47;20.95;;;;;;;;;;5008376;28;20286;-69
2022/12/23 06:59:13;;;;;;;63.55;21.45;;;;;;;;;;5003414;28;20200;-70
2022/12/23 07:01:39;;;;;;;68.55;22.00;;;;;;;;;;5001190;28;20270;-69
2022/12/23 07:04:04;;;;;;;66.43;22.00;;;;;;;;;;5001037;28;20197;-70
2022/12/23 07:06:30;;;;;;;64.00;20.95;;;;;;;;;;5003115;28;20211;-70
2022/12/23 07:08:55;;;;;;;63.75;21.90;;;;;;;;;;5017905;28;20641;-70
2022/12/23 07:11:21;;;;;;;68.82;21.08;;;;;;;;;;5006775;28;20202;-70
2022/12/23 07:13:46;;;;;;;73.15;22.55;;;;;;;;;;5003294;28;20237;-70
2022/12/23 07:16:11;;;;;;;66.22;21.77;;;;;;;;;;5002270;28;20209;-70
2022/12/23 07:18:37;;;;;;;72.95;23.15;;;;;;;;;;5008664;28;20268;-70
2022/12/23 07:21:03;;;;;;;76.85;23.45;;;;;;;;;;5009875;28;20222;-69
2022/12/23 07:23:29;;;;;;;72.85;22.77;;;;;;;;;;5009977;28;20241;-70
2022/12/23 07:25:55;;;;;;;88.68;23.65;;;;;;;;;;5008488;28;20211;-70
2022/12/23 07:28:23;;;;;;;80.15;23.35;;;;;;;;;;5015807;28;20232;-69
2022/12/23 07:30:49;;;;;;;86.85;23.23;;;;;;;;;;5008324;28;20187;-69
2022/12/23 07:33:14;;;;;;;79.80;22.02;;;;;;;;;;5000125;28;20634;-70
2022/12/23 07:35:42;;;;;;;79.50;23.35;;;;;;;;;;5001280;28;20340;-70
2022/12/23 07:38:08;;;;;;;82.32;22.65;;;;;;;;;;5016215;28;20650;-69
2022/12/23 07:40:34;;;;;;;71.32;21.58;;;;;;;;;;5014237;28;20186;-70
2022/12/23 07:42:59;;;;;;;69.00;22.67;;;;;;;;;;5006503;28;20215;-70
2022/12/23 07:45:26;;;;;;;90.03;23.27;;;;;;;;;;5011506;28;20206;-70
2022/12/23 07:47:57;;;;;;;73.82;22.35;;;;;;;;;;5017795;28;20685;-70
2022/12/23 07:50:23;;;;;;;82.18;23.00;;;;;;;;;;5003748;28;20187;-69
2022/12/23 07:52:48;;;;;;;92.95;23.58;;;;;;;;;;5020292;28;20190;-70
2022/12/23 07:55:14;;;;;;;80.82;22.55;;;;;;;;;;5013194;28;20650;-70
2022/12/23 07:57:40;;;;;;;88.18;24.13;;;;;;;;;;5005421;28;20194;-69
2022/12/23 08:00:10;;;;;;;74.22;23.42;;;;;;;;;;5005265;28;20215;-69
2022/12/23 08:02:36;;;;;;;82.63;24.02;;;;;;;;;;5000652;28;20281;-69
2022/12/23 08:05:01;;;;;;;74.80;22.55;;;;;;;;;;5005681;28;20290;-69
2022/12/23 08:07:27;;;;;;;73.70;21.52;;;;;;;;;;5010924;28;20183;-69
2022/12/23 08:09:52;;;;;;;65.68;21.33;;;;;;;;;;5007270;28;20572;-69
2022/12/23 08:12:18;;;;;;;74.60;22.88;;;;;;;;;;5004916;28;20244;-69
2022/12/23 08:14:44;;;;;;;78.47;23.27;;;;;;;;;;5001626;28;20526;-69
2022/12/23 08:17:10;;;;;;;71.10;21.15;;;;;;;;;;5007810;28;20225;-69
2022/12/23 08:19:35;;;;;;;96.53;23.98;;;;;;;;;;5007560;28;20704;-69
2022/12/23 08:22:00;;;;;;;106.78;24.90;;;;;;;;;;4999880;28;20249;-69
2022/12/23 08:24:26;;;;;;;91.65;23.30;;;;;;;;;;5007920;28;20198;-70
2022/12/23 08:26:51;;;;;;;81.15;22.23;;;;;;;;;;4992857;28;20214;-70
2022/12/23 08:29:16;;;;;;;78.60;21.73;;;;;;;;;;5013570;28;20202;-70
2022/12/23 08:31:42;;;;;;;72.53;21.02;;;;;;;;;;5004761;28;20244;-69
2022/12/23 08:34:07;;;;;;;67.75;21.75;;;;;;;;;;5002178;28;20290;-69
2022/12/23 08:36:34;;;;;;;66.68;20.35;;;;;;;;;;5000237;28;20194;-69
2022/12/23 08:39:04;;;;;;;74.65;20.23;;;;;;;;;;5004921;28;20507;-69
2022/12/23 08:41:32;;;;;;;75.03;20.00;;;;;;;;;;5014380;28;20214;-69
2022/12/23 08:43:57;;;;;;;66.25;20.85;;;;;;;;;;5017945;28;20186;-69
2022/12/23 08:46:24;;;;;;;62.28;20.67;;;;;;;;;;5008020;28;20724;-68
2022/12/23 08:48:49;;;;;;;63.33;20.42;;;;;;;;;;5015542;28;20685;-69
2022/12/23 08:51:17;;;;;;;73.22;20.38;;;;;;;;;;5014784;28;20190;-69
2022/12/23 08:53:43;;;;;;;53.83;18.02;;;;;;;;;;5014029;28;20186;-69
2022/12/23 08:56:29;;;;;;;57.70;18.70;;;;;;;;;;5012741;28;20294;-69
2022/12/23 08:58:55;;;;;;;47.42;16.33;;;;;;;;;;5013281;28;20249;-69
2022/12/23 09:01:24;;;;;;;50.78;17.40;;;;;;;;;;5009746;28;20662;-69
2022/12/23 09:03:50;;;;;;;45.97;17.67;;;;;;;;;;5019962;28;20509;-69
2022/12/23 09:06:22;;;;;;;45.58;15.93;;;;;;;;;;5023702;28;20211;-70
2022/12/23 09:08:48;;;;;;;47.95;17.05;;;;;;;;;;5025388;28;20300;-70
2022/12/23 09:11:16;;;;;;;44.35;17.17;;;;;;;;;;5009389;28;20218;-70
2022/12/23 09:13:42;;;;;;;52.00;17.08;;;;;;;;;;5016140;28;20201;-69
2022/12/23 09:16:09;;;;;;;45.20;16.60;;;;;;;;;;4998912;28;20568;-70
2022/12/23 09:18:34;;;;;;;48.47;16.70;;;;;;;;;;5025853;28;20224;-69
2022/12/23 09:21:06;;;;;;;51.25;16.67;;;;;;;;;;5024436;28;20190;-69
2022/12/23 09:23:33;;;;;;;44.13;15.85;;;;;;;;;;5016480;28;20202;-70
2022/12/23 09:25:58;;;;;;;43.97;15.15;;;;;;;;;;5021177;28;20215;-69
2022/12/23 09:28:24;;;;;;;46.42;14.40;;;;;;;;;;5026864;28;20200;-69
2022/12/23 09:30:50;;;;;;;40.95;14.88;;;;;;;;;;5025107;28;20194;-68
2022/12/23 09:33:17;;;;;;;42.78;15.25;;;;;;;;;;5027129;28;20189;-68
2022/12/23 09:35:42;;;;;;;44.38;15.10;;;;;;;;;;5021881;28;20194;-69
2022/12/23 09:38:08;;;;;;;42.53;15.30;;;;;;;;;;5020498;28;20194;-69
2022/12/23 09:40:35;;;;;;;41.65;15.02;;;;;;;;;;5021251;28;20597;-69
2022/12/23 09:43:14;;;;;;;46.78;15.65;;;;;;;;;;5022483;28;20186;-69
2022/12/23 09:46:06;;;;;;;35.75;14.35;;;;;;;;;;5022090;28;20210;-69
2022/12/23 09:48:46;;;;;;;38.67;14.38;;;;;;;;;;5020922;28;20201;-68
2022/12/23 09:51:14;;;;;;;47.92;15.60;;;;;;;;;;5013440;28;20187;-69
2022/12/23 09:53:58;;;;;;;43.78;15.20;;;;;;;;;;5015862;28;20178;-69
2022/12/23 09:56:50;;;;;;;38.85;15.07;;;;;;;;;;5022659;28;20195;-69
2022/12/23 09:59:40;;;;;;;41.28;14.07;;;;;;;;;;5022184;28;20193;-69
2022/12/23 10:02:36;;;;;;;41.05;14.80;;;;;;;;;;5015100;28;20651;-68
2022/12/23 10:05:26;;;;;;;41.40;14.52;;;;;;;;;;5019786;28;20215;-68
2022/12/23 10:08:00;;;;;;;34.70;13.15;;;;;;;;;;5016764;28;20515;-68
2022/12/23 10:10:49;;;;;;;33.53;13.73;;;;;;;;;;5017015;28;20187;-69
2022/12/23 10:13:26;;;;;;;32.47;12.85;;;;;;;;;;5016439;28;20201;-69
2022/12/23 10:15:54;;;;;;;33.40;13.73;;;;;;;;;;5016553;28;20391;-69
2022/12/23 10:18:33;;;;;;;43.25;14.50;;;;;;;;;;5026607;28;20186;-69
2022/12/23 10:21:17;;;;;;;36.05;13.88;;;;;;;;;;5019644;28;20185;-69
2022/12/23 10:23:47;;;;;;;38.95;14.13;;;;;;;;;;5016589;28;20198;-69
2022/12/23 10:26:37;;;;;;;39.08;14.57;;;;;;;;;;5016715;28;20627;-69
2022/12/23 10:29:30;;;;;;;32.15;12.82;;;;;;;;;;5012680;28;20190;-69
2022/12/23 10:32:29;;;;;;;37.05;13.90;;;;;;;;;;5010268;28;20210;-69
2022/12/23 10:35:11;;;;;;;34.28;14.48;;;;;;;;;;4998292;28;20195;-68
2022/12/23 10:37:51;;;;;;;37.17;14.85;;;;;;;;;;5002903;28;20207;-69
2022/12/23 10:40:31;;;;;;;33.35;13.93;;;;;;;;;;5006535;28;20626;-69
2022/12/23 10:43:22;;;;;;;31.70;14.70;;;;;;;;;;5010118;28;20201;-69
2022/12/23 10:46:14;;;;;;;33.03;14.88;;;;;;;;;;5000585;28;20314;-69
2022/12/23 10:49:06;;;;;;;41.55;15.52;;;;;;;;;;5006798;28;20241;-69
2022/12/23 10:51:45;;;;;;;38.40;15.07;;;;;;;;;;5010118;28;20188;-69
2022/12/23 10:54:21;;;;;;;41.17;15.48;;;;;;;;;;5009314;28;20420;-69
2022/12/23 10:56:46;;;;;;;41.45;15.38;;;;;;;;;;5007625;28;20198;-69
2022/12/23 10:59:21;;;;;;;41.03;15.45;;;;;;;;;;5019395;28;20208;-69
2022/12/23 11:01:50;;;;;;;35.17;15.15;;;;;;;;;;5025335;28;20618;-69
2022/12/23 11:04:18;;;;;;;45.30;15.82;;;;;;;;;;5009970;28;20250;-70
2022/12/23 11:06:49;;;;;;;44.28;17.38;;;;;;;;;;5001101;28;20231;-69
2022/12/23 11:09:22;;;;;;;42.15;16.80;;;;;;;;;;5015061;28;20328;-69
2022/12/23 11:12:14;;;;;;;43.17;15.38;;;;;;;;;;5011306;28;20249;-69
2022/12/23 11:14:50;;;;;;;46.22;16.33;;;;;;;;;;5012120;28;20194;-69
2022/12/23 11:17:24;;;;;;;43.45;15.82;;;;;;;;;;5004541;28;20203;-69
2022/12/23 11:20:14;;;;;;;42.78;15.75;;;;;;;;;;5012536;28;20186;-69
2022/12/23 11:22:53;;;;;;;45.50;16.75;;;;;;;;;;5008185;28;20315;-68
2022/12/23 11:25:36;;;;;;;46.70;17.92;;;;;;;;;;4994158;28;20246;-68
2022/12/23 11:28:10;;;;;;;49.45;17.50;;;;;;;;;;5002932;28;20269;-68
2022/12/23 11:30:55;;;;;;;50.10;17.70;;;;;;;;;;5008222;28;20713;-68
2022/12/23 11:33:28;;;;;;;49.35;17.77;;;;;;;;;;5005400;28;20214;-68
2022/12/23 11:36:11;;;;;;;46.03;17.52;;;;;;;;;;5004224;28;20192;-69
2022/12/23 11:38:50;;;;;;;45.97;16.75;;;;;;;;;;5001444;28;20195;-68
2022/12/23 11:41:27;;;;;;;49.63;18.13;;;;;;;;;;5014069;28;20215;-68
2022/12/23 11:44:25;;;;;;;51.92;18.20;;;;;;;;;;5010011;28;20174;-69
2022/12/23 11:46:51;;;;;;;46.45;16.92;;;;;;;;;;5010571;28;20209;-68
2022/12/23 11:49:27;;;;;;;47.90;18.20;;;;;;;;;;4997191;28;20210;-68
2022/12/23 11:52:04;;;;;;;49.85;17.85;;;;;;;;;;5005918;28;20187;-68
2022/12/23 11:54:31;;;;;;;47.35;18.02;;;;;;;;;;5010208;28;20677;-70
2022/12/23 11:56:57;;;;;;;48.80;19.00;;;;;;;;;;5002680;28;20182;-69
2022/12/23 11:59:42;;;;;;;54.35;20.15;;;;;;;;;;5002193;28;20199;-68
2022/12/23 12:02:34;;;;;;;50.13;17.83;;;;;;;;;;5010555;28;20210;-68
2022/12/23 12:05:24;;;;;;;53.03;19.73;;;;;;;;;;5009559;28;20573;-68
2022/12/23 12:07:50;;;;;;;58.28;20.42;;;;;;;;;;5012861;28;20407;-68
2022/12/23 12:10:21;;;;;;;56.20;20.50;;;;;;;;;;5009323;28;20273;-68
2022/12/23 12:12:50;;;;;;;56.25;19.67;;;;;;;;;;4973162;28;20190;-69
2022/12/23 12:15:48;;;;;;;61.13;20.75;;;;;;;;;;5015760;28;20591;-69
2022/12/23 12:18:17;;;;;;;58.67;21.27;;;;;;;;;;5014228;28;20198;-68
2022/12/23 12:20:47;;;;;;;60.92;21.77;;;;;;;;;;5013689;28;20236;-69
2022/12/23 12:23:28;;;;;;;64.22;21.95;;;;;;;;;;4999307;28;20281;-69
2022/12/23 12:26:04;;;;;;;62.50;21.63;;;;;;;;;;4999045;28;20729;-69
2022/12/23 12:28:37;;;;;;;57.80;20.50;;;;;;;;;;5004852;28;20635;-68
2022/12/23 12:31:33;;;;;;;65.07;22.08;;;;;;;;;;5007957;28;20197;-68
2022/12/23 12:34:04;;;;;;;60.05;20.38;;;;;;;;;;5006333;28;20502;-68
2022/12/23 12:36:43;;;;;;;62.38;22.20;;;;;;;;;;5007506;28;20270;-68
2022/12/23 12:39:25;;;;;;;60.42;21.88;;;;;;;;;;5001174;28;20214;-69
2022/12/23 12:41:55;;;;;;;65.40;22.48;;;;;;;;;;5008139;28;20202;-69
2022/12/23 12:44:39;;;;;;;60.38;21.50;;;;;;;;;;5004237;28;20264;-69
2022/12/23 12:47:18;;;;;;;62.78;22.85;;;;;;;;;;5015259;28;20199;-69
2022/12/23 12:49:55;;;;;;;66.50;22.10;;;;;;;;;;5018586;28;20186;-69
2022/12/23 12:52:25;;;;;;;70.28;23.67;;;;;;;;;;4308786;28;10000818;-69
2022/12/23 12:55:03;;;;;;;65.07;22.23;;;;;;;;;;5005231;28;20269;-69
2022/12/23 12:57:32;;;;;;;67.95;22.35;;;;;;;;;;5002136;28;20197;-69
2022/12/23 12:59:58;;;;;;;74.32;24.17;;;;;;;;;;5010997;28;20693;-70
2022/12/23 13:02:47;;;;;;;66.18;23.73;;;;;;;;;;5014656;28;20265;-70
2022/12/23 13:05:38;;;;;;;69.22;24.70;;;;;;;;;;5004261;28;20226;-70
2022/12/23 13:08:29;;;;;;;74.47;23.08;;;;;;;;;;5001162;28;20206;-70
2022/12/23 13:11:08;;;;;;;80.88;23.55;;;;;;;;;;5013795;28;20620;-70
2022/12/23 13:13:57;;;;;;;73.90;26.33;;;;;;;;;;5014383;28;20197;-71
2022/12/23 13:16:56;;;;;;;72.30;24.35;;;;;;;;;;5005594;28;20228;-70
2022/12/23 13:19:27;;;;;;;70.93;26.13;;;;;;;;;;4998527;28;20702;-71
2022/12/23 13:22:06;;;;;;;70.25;24.40;;;;;;;;;;5009400;28;20264;-71
2022/12/23 13:24:55;;;;;;;74.57;25.88;;;;;;;;;;5013342;28;20244;-71
2022/12/23 13:27:32;;;;;;;72.85;25.15;;;;;;;;;;4992633;28;20228;-72
2022/12/23 13:30:13;;;;;;;75.43;25.45;;;;;;;;;;5002488;28;20194;-71
2022/12/23 13:33:03;;;;;;;73.35;25.38;;;;;;;;;;5012220;28;20268;-71
2022/12/23 13:35:45;;;;;;;73.13;23.92;;;;;;;;;;5008869;28;20198;-71
2022/12/23 13:38:13;;;;;;;68.38;25.67;;;;;;;;;;4999201;28;20209;-71
2022/12/23 13:40:47;;;;;;;73.70;25.73;;;;;;;;;;5009833;28;20198;-71
2022/12/23 13:43:17;;;;;;;82.25;26.65;;;;;;;;;;5006062;28;20199;-71
2022/12/23 13:45:44;;;;;;;71.93;25.63;;;;;;;;;;5008343;28;20268;-72
2022/12/23 13:48:35;;;;;;;75.30;24.63;;;;;;;;;;5000290;28;20495;-72
2022/12/23 13:51:16;;;;;;;81.10;25.98;;;;;;;;;;4999295;28;20530;-72
2022/12/23 13:53:50;;;;;;;69.53;24.50;;;;;;;;;;5009053;28;20202;-72
2022/12/23 13:56:36;;;;;;;69.05;25.88;;;;;;;;;;5017210;28;20259;-72
2022/12/23 13:59:02;;;;;;;83.82;26.85;;;;;;;;;;5005013;28;20630;-72
2022/12/23 14:01:42;;;;;;;89.93;25.67;;;;;;;;;;5001057;28;20621;-73
2022/12/23 14:04:29;;;;;;;65.82;23.00;;;;;;;;;;5016737;28;20221;-73
2022/12/23 14:06:57;;;;;;;62.03;21.95;;;;;;;;;;5023388;28;20197;-73
2022/12/23 14:09:30;;;;;;;66.47;24.25;;;;;;;;;;5018997;28;20244;-73
2022/12/23 14:11:55;;;;;;;65.25;21.90;;;;;;;;;;5013132;28;20684;-74
2022/12/23 14:14:23;;;;;;;63.05;20.92;;;;;;;;;;5011305;28;20195;-74
2022/12/23 14:17:04;;;;;;;52.03;20.10;;;;;;;;;;5013055;28;20190;-73
2022/12/23 14:19:41;;;;;;;55.22;20.58;;;;;;;;;;5017121;28;20612;-72
2022/12/23 14:22:29;;;;;;;49.75;19.67;;;;;;;;;;5010773;28;20246;-73
2022/12/23 14:25:32;;;;;;;54.55;19.50;;;;;;;;;;5016586;28;20505;-73
2022/12/23 14:28:06;;;;;;;59.50;22.15;;;;;;;;;;5003220;28;20194;-74
2022/12/23 14:30:34;;;;;;;51.80;19.25;;;;;;;;;;5016453;28;20605;-73
2022/12/23 14:33:13;;;;;;;52.33;18.77;;;;;;;;;;5017584;28;20661;-72
2022/12/23 14:35:38;;;;;;;46.95;17.67;;;;;;;;;;5019575;28;20250;-72
2022/12/23 14:38:13;;;;;;;48.17;18.83;;;;;;;;;;5023079;28;20255;-72
2022/12/23 14:40:38;;;;;;;45.25;17.25;;;;;;;;;;5014551;28;20194;-72
2022/12/23 14:43:24;;;;;;;44.13;17.67;;;;;;;;;;5018861;28;20187;-73
2022/12/23 14:45:50;;;;;;;36.35;15.93;;;;;;;;;;5011713;28;20563;-73
2022/12/23 14:48:34;;;;;;;44.05;16.95;;;;;;;;;;5013959;28;20675;-73
2022/12/23 14:51:09;;;;;;;47.65;17.90;;;;;;;;;;5012108;28;21141;-73
2022/12/23 14:53:57;;;;;;;42.38;17.58;;;;;;;;;;5014709;28;20685;-73
2022/12/23 14:56:38;;;;;;;47.67;17.55;;;;;;;;;;5008590;28;20198;-73
2022/12/23 14:59:11;;;;;;;45.78;17.98;;;;;;;;;;5012658;28;20203;-73
2022/12/23 15:01:45;;;;;;;48.33;17.60;;;;;;;;;;5024364;28;20194;-72
2022/12/23 15:04:16;;;;;;;53.40;19.92;;;;;;;;;;5031458;28;20246;-72
2022/12/23 15:07:05;;;;;;;50.03;18.10;;;;;;;;;;5022366;28;20214;-73
2022/12/23 15:09:36;;;;;;;51.95;18.92;;;;;;;;;;5038100;28;20273;-73
2022/12/23 15:12:10;;;;;;;51.65;18.27;;;;;;;;;;5009721;28;20207;-73